createdAt,value
2023-04-22T00:03:50.351Z,93144.88
2023-04-22T00:08:54.562Z,93163.78
2023-04-22T00:13:58.668Z,93152.00
2023-04-22T00:19:02.201Z,93177.53
2023-04-22T00:24:05.445Z,93127.00
2023-04-22T00:29:09.091Z,93197.94
2023-04-22T00:34:13.206Z,93152.19
2023-04-22T00:39:16.954Z,93133.41
2023-04-22T00:44:22.001Z,93171.59
2023-04-22T00:49:28.356Z,93175.38
2023-04-22T00:54:32.928Z,93110.47
2023-04-22T00:59:37.421Z,93146.00
2023-04-22T01:04:42.729Z,93180.34
2023-04-22T01:09:46.743Z,93109.81
2023-04-22T01:14:50.562Z,93147.00
2023-04-22T01:19:55.975Z,93136.47
2023-04-22T01:24:59.510Z,93129.84
2023-04-22T01:30:03.410Z,93147.81
2023-04-22T01:35:09.207Z,93160.72
2023-04-22T01:40:14.847Z,93156.94
2023-04-22T01:45:19.410Z,93114.72
2023-04-22T01:50:23.771Z,93148.50
2023-04-22T01:55:27.332Z,93162.34
2023-04-22T02:00:31.044Z,93192.63
2023-04-22T02:05:34.668Z,93126.16
2023-04-22T02:10:38.065Z,93125.38
2023-04-22T02:15:41.767Z,93111.69
2023-04-22T02:20:45.203Z,93155.44
2023-04-22T02:25:53.508Z,93150.69
2023-04-22T02:30:57.414Z,93164.72
2023-04-22T02:36:01.117Z,93100.81
2023-04-22T02:41:04.502Z,93187.22
2023-04-22T02:46:08.065Z,93136.50
2023-04-22T02:51:12.177Z,93152.47
2023-04-22T02:56:16.047Z,93083.88
2023-04-22T03:01:19.909Z,93194.41
2023-04-22T03:06:23.737Z,93183.47
2023-04-22T03:11:27.724Z,93127.53
2023-04-22T03:16:31.957Z,93143.06
2023-04-22T03:21:40.100Z,93135.06
2023-04-22T03:26:43.914Z,93201.03
2023-04-22T03:31:47.727Z,93118.31
2023-04-22T03:36:51.590Z,93167.09
2023-04-22T03:41:56.338Z,93137.63
2023-04-22T03:47:00.174Z,93218.16
2023-04-22T03:52:10.858Z,93147.03
2023-04-22T03:57:19.263Z,93135.66
2023-04-22T04:02:23.942Z,93131.16
2023-04-22T04:07:27.312Z,93120.53
2023-04-22T04:12:31.337Z,93169.69
2023-04-22T04:17:35.754Z,93231.13
2023-04-22T04:22:41.659Z,93201.31
2023-04-22T04:27:46.870Z,93227.84
2023-04-22T04:32:51.688Z,93200.16
2023-04-22T04:37:55.685Z,93174.50
2023-04-22T04:43:02.709Z,93190.06
2023-04-22T04:48:13.208Z,93228.63
2023-04-22T04:53:20.797Z,93236.66
2023-04-22T04:58:25.067Z,93192.19
2023-04-22T05:03:43.093Z,93190.41
2023-04-22T05:08:49.366Z,93199.13
2023-04-22T05:13:53.123Z,93279.34
2023-04-22T05:21:47.457Z,93190.50
2023-04-22T05:26:55.802Z,93218.38
2023-04-22T05:35:41.083Z,93273.13
2023-04-22T05:40:46.050Z,93265.28
2023-04-22T05:45:51.776Z,93277.78
2023-04-22T05:50:57.474Z,93290.63
2023-04-22T05:56:03.713Z,93290.56
2023-04-22T06:01:17.943Z,93297.91
2023-04-22T06:06:38.371Z,93303.63
2023-04-22T06:11:42.136Z,93314.00
2023-04-22T06:16:45.851Z,93315.03
2023-04-22T06:21:56.786Z,93324.06
2023-04-22T06:27:02.465Z,93314.81
2023-04-22T06:32:06.873Z,93311.81
2023-04-22T06:37:10.880Z,93307.63
2023-04-22T06:42:15.718Z,93309.09
2023-04-22T06:47:45.807Z,93309.34
2023-04-22T06:52:52.045Z,93314.38
2023-04-22T06:57:55.729Z,93314.38
2023-04-22T07:02:59.848Z,93324.66
2023-04-22T07:08:03.141Z,93334.50
2023-04-22T07:13:07.126Z,93341.19
2023-04-22T07:18:11.228Z,93338.28
2023-04-22T07:23:14.986Z,93340.81
2023-04-22T07:28:19.118Z,93319.09
2023-04-22T07:33:22.865Z,93351.03
2023-04-22T07:38:27.206Z,93353.38
2023-04-22T07:43:30.886Z,93345.91
2023-04-22T07:48:34.000Z,93354.91
2023-04-22T07:53:37.540Z,93354.63
2023-04-22T07:58:41.032Z,93358.91
2023-04-22T08:03:44.976Z,93358.75
2023-04-22T08:08:48.729Z,93359.03
2023-04-22T08:13:52.538Z,93376.63
2023-04-22T08:18:57.772Z,93386.78
2023-04-22T08:24:01.359Z,93359.22
2023-04-22T08:29:26.694Z,93390.13
2023-04-22T08:34:29.806Z,93401.16
2023-04-22T08:39:33.012Z,93412.91
2023-04-22T08:44:38.244Z,93401.00
2023-04-22T08:49:43.998Z,93409.97
2023-04-22T08:54:47.199Z,93417.28
2023-04-22T08:59:52.025Z,93410.41
2023-04-22T09:04:55.814Z,93418.84
2023-04-22T09:09:59.505Z,93397.97
2023-04-22T09:15:03.827Z,93395.59
2023-04-22T09:20:10.027Z,93399.16
2023-04-22T09:25:36.349Z,93403.50
2023-04-22T09:30:39.583Z,93401.63
2023-04-22T09:35:45.175Z,93380.28
2023-04-22T09:40:49.427Z,93403.22
2023-04-22T09:45:53.777Z,93401.44
2023-04-22T09:50:58.160Z,93403.81
2023-04-22T09:56:05.354Z,93398.69
2023-04-22T10:01:09.098Z,93399.78
2023-04-22T10:06:12.792Z,93392.47
2023-04-22T10:11:16.966Z,93392.78
2023-04-22T10:16:26.052Z,93388.34
2023-04-22T10:21:32.614Z,93383.44
2023-04-22T10:26:56.960Z,93378.97
2023-04-22T10:32:25.813Z,93383.03
2023-04-22T10:37:28.870Z,93372.84
2023-04-22T10:42:32.489Z,93373.28
2023-04-22T10:47:37.786Z,93379.69
2023-04-22T10:52:45.469Z,93384.75
2023-04-22T10:57:51.401Z,93375.06
2023-04-22T11:03:18.635Z,93369.97
2023-04-22T11:08:24.110Z,93368.66
2023-04-22T11:13:30.240Z,93370.50
2023-04-22T11:18:33.824Z,93353.88
2023-04-22T11:23:37.928Z,93379.50
2023-04-22T11:28:48.793Z,93375.44
2023-04-22T11:33:52.475Z,93372.84
2023-04-22T11:38:57.556Z,93373.28
2023-04-22T11:44:02.038Z,93365.88
2023-04-22T11:49:34.858Z,93366.94
2023-04-22T11:54:39.109Z,93361.88
2023-04-22T11:59:43.430Z,93374.84
2023-04-22T12:04:47.726Z,93369.38
2023-04-22T12:09:55.177Z,93358.94
2023-04-22T12:14:58.421Z,93372.09
2023-04-22T12:20:01.610Z,93366.09
2023-04-22T12:25:05.266Z,93367.38
2023-04-22T12:30:09.247Z,93383.16
2023-04-22T12:35:12.986Z,93378.44
2023-04-22T12:40:17.057Z,93378.56
2023-04-22T12:45:20.974Z,93367.28
2023-04-22T12:50:24.253Z,93373.38
2023-04-22T12:55:28.557Z,93383.78
2023-04-22T13:00:32.107Z,93377.84
2023-04-22T13:05:35.918Z,93387.56
2023-04-22T13:10:39.014Z,93384.41
2023-04-22T13:15:42.512Z,93386.88
2023-04-22T13:20:46.599Z,93381.16
2023-04-22T13:25:51.126Z,93370.00
2023-04-22T13:30:55.615Z,93391.63
2023-04-22T13:35:59.040Z,93389.41
2023-04-22T13:41:03.448Z,93381.31
2023-04-22T13:46:07.192Z,93376.25
2023-04-22T13:51:11.090Z,93373.50
2023-04-22T13:56:16.033Z,93360.72
2023-04-22T14:01:21.459Z,93363.91
2023-04-22T14:06:27.560Z,93356.09
2023-04-22T14:11:31.536Z,93359.66
2023-04-22T14:16:35.404Z,93359.63
2023-04-22T14:21:38.711Z,93348.63
2023-04-22T14:26:42.752Z,93336.13
2023-04-22T14:31:46.931Z,93333.38
2023-04-22T14:36:50.810Z,93343.94
2023-04-22T14:41:54.833Z,93352.53
2023-04-22T14:46:58.024Z,93351.94
2023-04-22T14:52:01.801Z,93352.47
2023-04-22T14:57:06.013Z,93358.31
2023-04-22T15:02:16.119Z,93358.31
2023-04-22T15:12:23.816Z,93355.34
2023-04-22T15:17:27.720Z,93359.72
2023-04-22T15:22:33.000Z,93361.94
2023-04-22T15:27:36.613Z,93357.34
2023-04-22T15:32:39.692Z,93361.97
2023-04-22T15:37:43.651Z,93337.53
2023-04-22T15:42:47.596Z,93351.31
2023-04-22T15:47:52.641Z,93345.72
2023-04-22T15:52:56.409Z,93347.97
2023-04-22T15:57:59.961Z,93344.84
2023-04-22T16:03:03.742Z,93345.25
2023-04-22T16:08:07.358Z,93346.00
2023-04-22T16:13:10.973Z,93354.63
2023-04-22T16:18:15.078Z,93364.06
2023-04-22T16:23:18.742Z,93359.31
2023-04-22T16:28:22.882Z,93364.13
2023-04-22T16:33:26.326Z,93360.03
2023-04-22T16:38:29.500Z,93367.81
2023-04-22T16:43:33.318Z,93365.75
2023-04-22T16:48:37.415Z,93367.03
2023-04-22T16:53:41.442Z,93376.75
2023-04-22T16:58:45.373Z,93382.00
2023-04-22T17:03:49.028Z,93382.09
2023-04-22T17:08:52.795Z,93389.50
2023-04-22T17:13:56.276Z,93393.28
2023-04-22T17:19:00.039Z,93399.38
2023-04-22T17:24:06.151Z,93398.16
2023-04-22T17:29:09.676Z,93389.34
2023-04-22T17:34:13.936Z,93405.53
2023-04-22T17:39:17.344Z,93404.16
2023-04-22T17:44:20.688Z,93417.19
2023-04-22T17:49:24.313Z,93428.19
2023-04-22T17:54:27.819Z,93439.19
2023-04-22T17:59:31.946Z,93424.69
2023-04-22T18:04:36.042Z,93429.06
2023-04-22T18:09:39.918Z,93447.78
2023-04-22T18:14:43.966Z,93446.25
2023-04-22T18:19:51.322Z,93451.31
2023-04-22T18:24:54.640Z,93449.38
2023-04-22T18:29:58.051Z,93453.28
2023-04-22T18:35:01.645Z,93468.50
2023-04-22T18:40:06.688Z,93460.25
2023-04-22T18:45:10.567Z,93481.69
2023-04-22T18:50:14.696Z,93485.56
2023-04-22T18:55:18.681Z,93491.78
2023-04-22T19:00:22.315Z,93491.66
2023-04-22T19:05:26.556Z,93501.78
2023-04-22T19:10:30.171Z,93505.69
2023-04-22T19:15:33.635Z,93513.81
2023-04-22T19:20:37.214Z,93517.66
2023-04-22T19:25:40.738Z,93522.19
2023-04-22T19:30:44.543Z,93517.78
2023-04-22T19:35:47.967Z,93526.38
2023-04-22T19:40:51.602Z,93535.56
2023-04-22T19:45:55.254Z,93534.72
2023-04-22T19:51:00.047Z,93529.13
2023-04-22T19:56:04.188Z,93531.84
2023-04-22T20:01:07.931Z,93541.56
2023-04-22T20:06:15.320Z,93536.09
2023-04-22T20:11:19.310Z,93538.72
2023-04-22T20:16:24.212Z,93545.69
2023-04-22T20:21:29.572Z,93548.41
2023-04-22T20:26:33.644Z,93541.56
2023-04-22T20:31:37.453Z,93540.63
2023-04-22T20:36:41.116Z,93555.84
2023-04-22T20:41:46.056Z,93549.47
2023-04-22T20:46:49.061Z,93547.16
2023-04-22T20:51:53.382Z,93548.94
2023-04-22T20:56:58.012Z,93558.31
2023-04-22T21:02:04.493Z,93563.28
2023-04-22T21:07:12.508Z,93563.22
2023-04-22T21:12:17.702Z,93563.44
2023-04-22T21:17:25.720Z,93570.47
2023-04-22T21:22:30.036Z,93558.19
2023-04-22T21:27:35.547Z,93563.31
2023-04-22T21:32:40.943Z,93566.31
2023-04-22T21:37:44.116Z,93568.47
2023-04-22T21:42:48.889Z,93584.41
2023-04-22T21:47:53.081Z,93583.16
2023-04-22T21:52:57.948Z,93586.97
2023-04-22T21:58:00.982Z,93581.84
2023-04-22T22:03:04.709Z,93573.63
2023-04-22T22:08:08.661Z,93576.69
2023-04-22T22:13:12.179Z,93589.38
2023-04-22T22:18:15.922Z,93573.38
2023-04-22T22:23:21.674Z,93586.59
2023-04-22T22:28:25.918Z,93582.19
2023-04-22T22:33:30.063Z,93588.03
2023-04-22T22:38:33.246Z,93581.72
2023-04-22T22:43:37.400Z,93581.66
2023-04-22T22:48:40.596Z,93578.88
2023-04-22T22:53:44.384Z,93575.84
2023-04-22T22:58:48.664Z,93573.84
2023-04-22T23:03:52.770Z,93574.69
2023-04-22T23:08:57.378Z,93563.03
2023-04-22T23:14:02.878Z,93568.06
2023-04-22T23:19:07.076Z,93563.59
2023-04-22T23:24:12.802Z,93549.81
2023-04-22T23:29:17.342Z,93560.75
2023-04-22T23:34:24.382Z,93547.75
2023-04-22T23:39:28.048Z,93538.69
2023-04-22T23:44:31.781Z,93557.31
2023-04-22T23:49:35.422Z,93554.06
2023-04-22T23:54:40.398Z,93549.28
2023-04-22T23:59:45.087Z,93541.13
